Time;durP1;ratioP1;P1;durP2;ratioP2;P2;SDS_P1;SDS_P2;PMS_P1;PMS_P2;Temp;Humidity;BMP_temperature;BMP_pressure;BME280_temperature;BME280_humidity;BME280_pressure;Samples;Min_cycle;Max_cycle;Signal;HPM_P1;HPM_P2
2022/11/16 00:02:10;;;;;;;64.13;36.07;;;;;;;;;;734615;190;922800;-70
2022/11/16 00:04:36;;;;;;;53.67;34.23;;;;;;;;;;737294;191;918548;-70
2022/11/16 00:07:02;;;;;;;61.45;35.65;;;;;;;;;;722333;189;919254;-70
2022/11/16 00:09:30;;;;;;;55.53;34.03;;;;;;;;;;732501;190;923168;-70
2022/11/16 00:11:55;;;;;;;58.50;35.20;;;;;;;;;;736735;190;920539;-70
2022/11/16 00:14:21;;;;;;;53.73;33.13;;;;;;;;;;734915;190;919087;-70
2022/11/16 00:16:47;;;;;;;48.03;31.40;;;;;;;;;;730337;190;919364;-70
2022/11/16 00:19:13;;;;;;;60.13;34.03;;;;;;;;;;729770;191;918690;-70
2022/11/16 00:21:38;;;;;;;54.37;34.73;;;;;;;;;;738058;191;816721;-70
2022/11/16 00:24:05;;;;;;;59.00;34.53;;;;;;;;;;708842;196;919431;-70
2022/11/16 00:26:30;;;;;;;52.90;33.60;;;;;;;;;;716286;193;918770;-70
2022/11/16 00:28:56;;;;;;;61.37;33.93;;;;;;;;;;738786;188;919675;-70
2022/11/16 00:31:22;;;;;;;53.63;35.90;;;;;;;;;;735868;189;921880;-70
2022/11/16 00:33:48;;;;;;;62.87;34.23;;;;;;;;;;730459;191;918616;-70
2022/11/16 00:36:14;;;;;;;51.80;33.90;;;;;;;;;;739046;190;817282;-70
2022/11/16 00:38:40;;;;;;;57.83;35.27;;;;;;;;;;726986;190;918822;-70
2022/11/16 00:41:05;;;;;;;47.90;33.00;;;;;;;;;;730317;190;627287;-70
2022/11/16 00:43:31;;;;;;;55.80;35.27;;;;;;;;;;733884;188;638260;-70
2022/11/16 00:45:57;;;;;;;61.30;36.80;;;;;;;;;;743132;188;631698;-70
2022/11/16 00:48:23;;;;;;;58.80;33.70;;;;;;;;;;735312;188;632933;-70
2022/11/16 00:50:49;;;;;;;64.47;36.80;;;;;;;;;;730554;190;672493;-71
2022/11/16 00:53:15;;;;;;;60.67;36.23;;;;;;;;;;733163;191;916357;-70
2022/11/16 00:55:40;;;;;;;61.00;37.90;;;;;;;;;;736386;190;919372;-70
2022/11/16 00:58:06;;;;;;;64.40;37.70;;;;;;;;;;725210;190;923595;-70
2022/11/16 01:00:32;;;;;;;68.50;38.77;;;;;;;;;;733476;191;817563;-70
2022/11/16 01:02:58;;;;;;;62.87;38.40;;;;;;;;;;734945;188;919274;-70
2022/11/16 01:05:24;;;;;;;62.35;37.53;;;;;;;;;;732301;191;939039;-70
2022/11/16 01:07:50;;;;;;;57.23;35.33;;;;;;;;;;739901;189;919010;-70
2022/11/16 01:10:16;;;;;;;67.70;39.20;;;;;;;;;;730236;190;919019;-70
2022/11/16 01:12:41;;;;;;;62.10;38.47;;;;;;;;;;728907;190;919358;-70
2022/11/16 01:15:08;;;;;;;63.13;37.57;;;;;;;;;;740069;189;918374;-70
2022/11/16 01:17:34;;;;;;;63.80;40.00;;;;;;;;;;738049;191;919408;-70
2022/11/16 01:19:59;;;;;;;61.57;37.53;;;;;;;;;;732649;190;919407;-70
2022/11/16 01:22:25;;;;;;;66.90;38.90;;;;;;;;;;737122;190;916262;-70
2022/11/16 01:24:51;;;;;;;57.38;37.47;;;;;;;;;;731613;191;920555;-70
2022/11/16 01:27:17;;;;;;;62.67;38.97;;;;;;;;;;735563;190;1117058;-70
2022/11/16 01:29:44;;;;;;;68.40;38.90;;;;;;;;;;733384;190;917301;-70
2022/11/16 01:32:09;;;;;;;58.08;35.85;;;;;;;;;;734846;190;918411;-70
2022/11/16 01:34:35;;;;;;;69.27;39.00;;;;;;;;;;735626;189;918506;-70
2022/11/16 01:37:00;;;;;;;59.43;35.27;;;;;;;;;;735512;189;819990;-70
2022/11/16 01:39:26;;;;;;;61.33;38.38;;;;;;;;;;729642;190;815542;-70
2022/11/16 01:41:52;;;;;;;63.73;35.87;;;;;;;;;;742106;186;968231;-70
2022/11/16 01:44:24;;;;;;;61.90;37.27;;;;;;;;;;733765;190;916407;-70
2022/11/16 01:46:50;;;;;;;63.27;38.57;;;;;;;;;;733398;190;918919;-70
2022/11/16 01:49:16;;;;;;;66.03;39.83;;;;;;;;;;738269;190;814057;-70
2022/11/16 01:51:41;;;;;;;61.87;38.43;;;;;;;;;;735532;190;919510;-69
2022/11/16 01:54:07;;;;;;;64.20;39.83;;;;;;;;;;735175;189;919331;-70
2022/11/16 01:56:33;;;;;;;63.67;38.70;;;;;;;;;;737329;191;817523;-70
2022/11/16 01:58:59;;;;;;;59.63;39.20;;;;;;;;;;740613;187;919916;-70
2022/11/16 02:01:25;;;;;;;69.13;41.70;;;;;;;;;;727698;191;918834;-70
2022/11/16 02:03:51;;;;;;;56.30;38.03;;;;;;;;;;733792;191;917855;-69
2022/11/16 02:06:23;;;;;;;60.50;40.75;;;;;;;;;;737224;190;917540;-69
2022/11/16 02:11:41;;;;;;;64.10;38.87;;;;;;;;;;731252;190;935907;-70
2022/11/16 02:14:18;;;;;;;66.33;38.90;;;;;;;;;;724944;191;918412;-71
2022/11/16 02:16:50;;;;;;;65.10;38.37;;;;;;;;;;732221;191;918772;-71
2022/11/16 02:19:17;;;;;;;58.37;36.60;;;;;;;;;;729348;190;918354;-71
2022/11/16 02:21:43;;;;;;;71.30;41.53;;;;;;;;;;731958;190;919276;-71
2022/11/16 02:24:11;;;;;;;63.50;36.97;;;;;;;;;;723064;191;918324;-71
2022/11/16 02:26:52;;;;;;;65.70;38.87;;;;;;;;;;720028;191;919369;-70
2022/11/16 02:29:20;;;;;;;65.33;38.27;;;;;;;;;;731832;189;918434;-71
2022/11/16 02:31:56;;;;;;;67.40;39.65;;;;;;;;;;730668;189;919064;-71
2022/11/16 02:34:22;;;;;;;56.20;38.20;;;;;;;;;;739777;190;815128;-71
2022/11/16 02:36:48;;;;;;;60.07;39.27;;;;;;;;;;732963;190;919076;-71
2022/11/16 02:39:14;;;;;;;57.27;37.37;;;;;;;;;;735922;189;916430;-71
2022/11/16 02:41:39;;;;;;;58.17;37.37;;;;;;;;;;730617;187;915897;-71
2022/11/16 02:44:05;;;;;;;70.72;38.72;;;;;;;;;;738887;187;816398;-71
2022/11/16 02:46:31;;;;;;;58.07;37.63;;;;;;;;;;731080;190;916194;-72
2022/11/16 02:48:57;;;;;;;61.05;37.20;;;;;;;;;;730765;188;918596;-71
2022/11/16 02:51:23;;;;;;;56.23;36.57;;;;;;;;;;733261;190;915978;-72
2022/11/16 02:53:50;;;;;;;59.67;36.83;;;;;;;;;;732571;190;915965;-71
2022/11/16 02:56:15;;;;;;;68.90;37.83;;;;;;;;;;728707;190;923410;-71
2022/11/16 02:58:41;;;;;;;51.30;35.67;;;;;;;;;;733396;189;920304;-71
2022/11/16 03:01:07;;;;;;;67.57;38.57;;;;;;;;;;729503;189;812410;-71
2022/11/16 03:03:38;;;;;;;64.67;38.90;;;;;;;;;;724506;191;914679;-71
2022/11/16 03:06:04;;;;;;;57.42;37.88;;;;;;;;;;729714;190;919391;-71
2022/11/16 03:08:31;;;;;;;61.00;38.57;;;;;;;;;;736837;189;897320;-71
2022/11/16 03:13:29;;;;;;;56.80;36.17;;;;;;;;;;729057;189;918984;-71
2022/11/16 03:15:55;;;;;;;58.97;37.73;;;;;;;;;;734555;191;921266;-71
2022/11/16 03:18:21;;;;;;;65.47;38.47;;;;;;;;;;732501;191;919319;-71
2022/11/16 03:20:46;;;;;;;67.87;38.70;;;;;;;;;;731123;189;816760;-71
2022/11/16 03:23:12;;;;;;;56.30;35.60;;;;;;;;;;725658;188;817100;-71
2022/11/16 03:25:39;;;;;;;51.30;35.63;;;;;;;;;;738119;191;818312;-72
2022/11/16 03:28:06;;;;;;;64.07;40.00;;;;;;;;;;728478;189;817898;-71
2022/11/16 03:30:31;;;;;;;67.50;38.93;;;;;;;;;;731957;191;814555;-71
2022/11/16 03:33:00;;;;;;;62.35;38.17;;;;;;;;;;738144;190;813382;-71
2022/11/16 03:35:26;;;;;;;63.07;39.17;;;;;;;;;;741207;189;816729;-71
2022/11/16 03:37:52;;;;;;;57.47;38.60;;;;;;;;;;730273;189;625490;-71
2022/11/16 03:40:18;;;;;;;55.93;36.30;;;;;;;;;;737055;188;911427;-72
2022/11/16 03:42:43;;;;;;;57.00;34.37;;;;;;;;;;741962;189;816055;-69
2022/11/16 03:45:09;;;;;;;55.57;33.60;;;;;;;;;;735914;190;917157;-71
2022/11/16 03:47:35;;;;;;;62.80;33.00;;;;;;;;;;736018;190;927921;-71
2022/11/16 03:50:02;;;;;;;63.37;34.87;;;;;;;;;;747303;189;919067;-71
2022/11/16 03:52:27;;;;;;;66.13;35.00;;;;;;;;;;728271;191;917437;-71
2022/11/16 03:54:53;;;;;;;62.40;34.37;;;;;;;;;;727651;188;919903;-71
2022/11/16 03:57:19;;;;;;;74.97;35.80;;;;;;;;;;738353;190;918147;-71
2022/11/16 03:59:45;;;;;;;69.87;34.43;;;;;;;;;;734062;188;918678;-71
2022/11/16 04:02:10;;;;;;;59.20;33.72;;;;;;;;;;733444;190;919729;-71
2022/11/16 04:24:49;;;;;;;61.83;35.47;;;;;;;;;;730339;188;912929;-70
2022/11/16 04:29:47;;;;;;;60.38;33.67;;;;;;;;;;735953;189;817015;-71
2022/11/16 04:37:52;;;;;;;57.70;34.33;;;;;;;;;;737626;191;918320;-69
2022/11/16 04:40:01;;;;;;;57.30;32.67;;;;;;;;;;727657;190;1020108;-71
2022/11/16 04:42:27;;;;;;;60.03;32.30;;;;;;;;;;728401;191;920133;-71
2022/11/16 04:47:24;;;;;;;63.70;33.40;;;;;;;;;;731031;190;917864;-71
2022/11/16 04:49:50;;;;;;;64.90;34.17;;;;;;;;;;732695;186;918235;-71
2022/11/16 04:52:16;;;;;;;57.20;33.80;;;;;;;;;;736077;190;918739;-71
2022/11/16 04:54:42;;;;;;;59.43;31.80;;;;;;;;;;734320;187;918911;-71
2022/11/16 04:57:08;;;;;;;59.50;35.60;;;;;;;;;;734222;190;918537;-71
2022/11/16 04:59:33;;;;;;;58.97;35.73;;;;;;;;;;733560;189;815068;-71
2022/11/16 05:04:31;;;;;;;61.70;34.13;;;;;;;;;;734899;190;919529;-71
2022/11/16 05:06:57;;;;;;;63.07;33.50;;;;;;;;;;732841;190;920261;-71
2022/11/16 05:09:23;;;;;;;74.30;36.50;;;;;;;;;;737326;191;897782;-71
2022/11/16 05:11:49;;;;;;;70.70;37.73;;;;;;;;;;737444;190;920237;-71
2022/11/16 05:14:14;;;;;;;73.57;36.97;;;;;;;;;;735115;188;919347;-71
2022/11/16 05:16:41;;;;;;;70.45;37.88;;;;;;;;;;736730;190;919301;-72
2022/11/16 05:21:38;;;;;;;62.05;33.33;;;;;;;;;;736042;190;918458;-71
2022/11/16 05:26:36;;;;;;;72.33;35.57;;;;;;;;;;727233;190;934556;-71
2022/11/16 05:29:01;;;;;;;68.03;35.37;;;;;;;;;;734608;188;821998;-71
2022/11/16 05:31:27;;;;;;;65.23;36.97;;;;;;;;;;730781;191;918650;-71
2022/11/16 05:33:53;;;;;;;57.13;32.57;;;;;;;;;;727160;190;933399;-71
2022/11/16 05:36:19;;;;;;;73.87;36.07;;;;;;;;;;730341;191;919338;-71
2022/11/16 05:38:45;;;;;;;68.67;36.87;;;;;;;;;;731399;189;913089;-71
2022/11/16 05:41:11;;;;;;;70.47;34.13;;;;;;;;;;734562;189;714349;-71
2022/11/16 05:43:37;;;;;;;63.10;33.10;;;;;;;;;;738390;188;912023;-70
2022/11/16 05:46:03;;;;;;;52.33;30.90;;;;;;;;;;731406;190;1036792;-71
2022/11/16 05:48:29;;;;;;;62.23;35.43;;;;;;;;;;726761;190;914008;-70
2022/11/16 05:50:58;;;;;;;57.47;31.77;;;;;;;;;;739485;189;716343;-71
2022/11/16 05:53:24;;;;;;;60.73;33.70;;;;;;;;;;739597;190;917805;-71
2022/11/16 05:55:50;;;;;;;62.53;35.47;;;;;;;;;;728958;189;892297;-71
2022/11/16 05:58:16;;;;;;;57.50;31.97;;;;;;;;;;732279;190;919502;-71
2022/11/16 06:00:42;;;;;;;54.85;31.60;;;;;;;;;;734242;190;933928;-71
2022/11/16 06:03:08;;;;;;;69.90;37.07;;;;;;;;;;728394;189;919744;-71
2022/11/16 06:05:34;;;;;;;67.00;32.83;;;;;;;;;;736012;189;816139;-71
2022/11/16 06:08:01;;;;;;;58.33;30.90;;;;;;;;;;731674;189;1036834;-71
2022/11/16 06:10:27;;;;;;;62.67;33.17;;;;;;;;;;730441;190;906541;-71
2022/11/16 06:12:54;;;;;;;54.43;30.30;;;;;;;;;;734800;189;918727;-71
2022/11/16 06:15:21;;;;;;;58.65;33.53;;;;;;;;;;733518;190;906772;-71
2022/11/16 06:17:47;;;;;;;46.90;30.07;;;;;;;;;;739205;191;817056;-72
2022/11/16 06:20:13;;;;;;;67.47;32.03;;;;;;;;;;737952;190;816564;-71
2022/11/16 06:22:39;;;;;;;58.63;33.90;;;;;;;;;;732580;189;914673;-71
2022/11/16 06:25:06;;;;;;;63.07;34.53;;;;;;;;;;734029;187;1021332;-71
2022/11/16 06:27:32;;;;;;;60.20;31.63;;;;;;;;;;735030;190;919166;-71
2022/11/16 06:29:58;;;;;;;68.33;36.03;;;;;;;;;;734179;190;816001;-71
2022/11/16 06:32:24;;;;;;;66.33;32.47;;;;;;;;;;739339;189;715991;-72
2022/11/16 06:34:49;;;;;;;65.43;34.30;;;;;;;;;;738205;190;816336;-71
2022/11/16 06:37:15;;;;;;;71.30;33.63;;;;;;;;;;731697;190;809268;-71
2022/11/16 06:39:41;;;;;;;63.83;33.47;;;;;;;;;;724680;190;918773;-71
2022/11/16 06:42:07;;;;;;;61.90;33.17;;;;;;;;;;732690;190;919497;-70
2022/11/16 06:44:35;;;;;;;65.60;33.77;;;;;;;;;;732380;190;809983;-71
2022/11/16 06:46:59;;;;;;;63.20;34.77;;;;;;;;;;733770;191;919236;-71
2022/11/16 06:49:25;;;;;;;66.50;34.10;;;;;;;;;;744704;187;919387;-70
2022/11/16 06:51:51;;;;;;;59.60;31.67;;;;;;;;;;730523;191;920478;-70
2022/11/16 06:54:17;;;;;;;65.60;35.23;;;;;;;;;;731114;191;918498;-71
2022/11/16 06:56:43;;;;;;;74.57;35.13;;;;;;;;;;741758;191;931896;-71
2022/11/16 06:59:09;;;;;;;54.80;29.07;;;;;;;;;;731444;190;919506;-70
2022/11/16 07:01:36;;;;;;;58.27;32.30;;;;;;;;;;734397;190;918094;-70
2022/11/16 07:04:03;;;;;;;54.30;31.20;;;;;;;;;;738916;190;919371;-70
2022/11/16 07:06:29;;;;;;;67.00;32.77;;;;;;;;;;737157;190;905349;-70
2022/11/16 07:08:55;;;;;;;52.80;29.70;;;;;;;;;;732489;190;921367;-71
2022/11/16 07:11:22;;;;;;;63.33;34.33;;;;;;;;;;727533;191;961825;-70
2022/11/16 07:13:48;;;;;;;57.70;32.67;;;;;;;;;;733949;187;814918;-71
2022/11/16 07:16:13;;;;;;;63.47;33.73;;;;;;;;;;738829;188;714777;-71
2022/11/16 07:18:39;;;;;;;71.37;35.90;;;;;;;;;;725556;191;934069;-70
2022/11/16 07:21:07;;;;;;;68.00;35.80;;;;;;;;;;729297;191;816845;-70
2022/11/16 07:23:33;;;;;;;65.87;34.70;;;;;;;;;;730585;188;915891;-70
2022/11/16 07:25:59;;;;;;;72.23;35.10;;;;;;;;;;735805;190;816231;-70
2022/11/16 07:28:25;;;;;;;68.47;34.83;;;;;;;;;;733123;189;815773;-70
2022/11/16 07:30:50;;;;;;;63.60;35.37;;;;;;;;;;739745;190;820216;-70
2022/11/16 07:33:16;;;;;;;58.63;33.37;;;;;;;;;;734746;188;913073;-70
2022/11/16 07:35:43;;;;;;;62.47;34.40;;;;;;;;;;733104;191;914116;-70
2022/11/16 07:38:09;;;;;;;66.00;32.90;;;;;;;;;;741627;191;623508;-70
2022/11/16 07:40:35;;;;;;;59.17;37.17;;;;;;;;;;737730;189;818250;-71
2022/11/16 07:43:01;;;;;;;66.00;34.20;;;;;;;;;;732215;191;907171;-70
2022/11/16 07:45:26;;;;;;;61.67;32.43;;;;;;;;;;739900;190;898602;-69
2022/11/16 07:47:52;;;;;;;70.27;35.00;;;;;;;;;;733254;190;791624;-70
2022/11/16 07:50:18;;;;;;;59.23;34.17;;;;;;;;;;731817;187;918662;-70
2022/11/16 07:52:45;;;;;;;66.73;33.57;;;;;;;;;;731971;191;860065;-70
2022/11/16 07:55:10;;;;;;;60.73;33.03;;;;;;;;;;736066;187;919839;-70
2022/11/16 07:57:36;;;;;;;70.00;35.77;;;;;;;;;;707775;196;903218;-71
2022/11/16 08:00:03;;;;;;;69.60;34.83;;;;;;;;;;730578;188;919267;-70
2022/11/16 08:02:30;;;;;;;61.70;35.23;;;;;;;;;;741499;190;815091;-70
2022/11/16 08:04:56;;;;;;;64.50;33.77;;;;;;;;;;726425;190;918349;-70
2022/11/16 08:07:23;;;;;;;67.23;34.80;;;;;;;;;;737744;189;919375;-72
2022/11/16 08:09:49;;;;;;;63.97;33.23;;;;;;;;;;739389;190;814393;-71
2022/11/16 08:12:15;;;;;;;74.03;35.73;;;;;;;;;;738025;188;918911;-70
2022/11/16 08:14:41;;;;;;;73.83;36.43;;;;;;;;;;727606;189;914138;-70
2022/11/16 08:17:07;;;;;;;73.00;36.55;;;;;;;;;;727866;190;918061;-71
2022/11/16 08:19:33;;;;;;;76.43;39.47;;;;;;;;;;733426;188;817305;-69
2022/11/16 08:21:59;;;;;;;73.80;38.63;;;;;;;;;;730090;189;918848;-71
2022/11/16 08:24:24;;;;;;;80.97;40.83;;;;;;;;;;728273;190;623638;-70
2022/11/16 08:26:50;;;;;;;80.10;39.37;;;;;;;;;;741815;190;614636;-70
2022/11/16 08:29:16;;;;;;;82.33;37.77;;;;;;;;;;743179;189;633158;-71
2022/11/16 08:31:42;;;;;;;73.43;38.63;;;;;;;;;;736472;190;916620;-70
2022/11/16 08:34:08;;;;;;;75.68;37.50;;;;;;;;;;738223;190;927882;-70
2022/11/16 08:36:34;;;;;;;74.00;37.93;;;;;;;;;;738364;186;917352;-71
2022/11/16 08:39:00;;;;;;;75.67;38.40;;;;;;;;;;729573;190;812736;-70
2022/11/16 08:41:26;;;;;;;75.37;37.53;;;;;;;;;;734409;190;916503;-70
2022/11/16 08:43:52;;;;;;;80.30;39.97;;;;;;;;;;733702;190;915441;-70
2022/11/16 08:46:18;;;;;;;77.60;37.63;;;;;;;;;;708596;198;918678;-71
2022/11/16 08:48:44;;;;;;;70.67;38.30;;;;;;;;;;734842;188;919976;-71
2022/11/16 08:51:10;;;;;;;77.27;38.47;;;;;;;;;;729732;191;716865;-70
2022/11/16 08:53:36;;;;;;;72.20;40.27;;;;;;;;;;725301;192;917003;-70
2022/11/16 08:56:02;;;;;;;76.53;38.03;;;;;;;;;;729140;190;919219;-71
2022/11/16 08:58:29;;;;;;;72.60;37.53;;;;;;;;;;738262;190;916776;-71
2022/11/16 09:00:55;;;;;;;64.63;36.30;;;;;;;;;;729202;189;915160;-70
2022/11/16 09:03:22;;;;;;;71.07;35.23;;;;;;;;;;726884;190;924561;-71
2022/11/16 09:05:49;;;;;;;59.53;33.40;;;;;;;;;;725829;191;916423;-71
2022/11/16 09:08:14;;;;;;;76.70;36.00;;;;;;;;;;727387;191;897698;-70
2022/11/16 09:10:40;;;;;;;72.47;35.90;;;;;;;;;;708354;197;915295;-71
2022/11/16 09:13:06;;;;;;;68.20;34.50;;;;;;;;;;721678;190;915297;-70
2022/11/16 09:15:32;;;;;;;69.50;34.80;;;;;;;;;;737860;190;919526;-70
2022/11/16 09:17:58;;;;;;;64.43;35.00;;;;;;;;;;724531;191;938190;-70
2022/11/16 09:20:25;;;;;;;68.27;33.80;;;;;;;;;;730738;191;825546;-70
2022/11/16 09:22:50;;;;;;;66.70;33.63;;;;;;;;;;723643;191;914162;-71
2022/11/16 09:25:17;;;;;;;66.77;32.80;;;;;;;;;;739942;187;816480;-71
2022/11/16 09:27:42;;;;;;;53.27;27.97;;;;;;;;;;737508;191;818366;-71
2022/11/16 09:30:08;;;;;;;56.63;31.73;;;;;;;;;;738311;191;780093;-71
2022/11/16 09:32:34;;;;;;;57.43;32.90;;;;;;;;;;732981;191;918171;-70
2022/11/16 09:35:00;;;;;;;60.17;30.52;;;;;;;;;;730411;190;905919;-71
2022/11/16 09:37:26;;;;;;;54.43;31.17;;;;;;;;;;733495;189;911586;-71
2022/11/16 09:39:52;;;;;;;68.00;33.50;;;;;;;;;;739268;189;697791;-70
2022/11/16 09:42:17;;;;;;;75.33;32.13;;;;;;;;;;735394;190;914271;-71
2022/11/16 09:44:44;;;;;;;59.77;32.73;;;;;;;;;;731852;187;899619;-71
2022/11/16 09:47:15;;;;;;;41.47;25.93;;;;;;;;;;733603;190;919431;-70
2022/11/16 09:49:43;;;;;;;42.87;22.03;;;;;;;;;;733597;187;918571;-70
2022/11/16 09:52:10;;;;;;;38.67;24.90;;;;;;;;;;726714;190;919423;-71
2022/11/16 09:54:37;;;;;;;35.43;20.20;;;;;;;;;;737247;190;918866;-70
2022/11/16 09:57:03;;;;;;;32.90;19.87;;;;;;;;;;739828;190;918470;-71
2022/11/16 09:59:32;;;;;;;31.23;18.57;;;;;;;;;;735274;188;918661;-70
2022/11/16 10:02:03;;;;;;;25.47;15.77;;;;;;;;;;733011;190;919967;-70
2022/11/16 10:04:37;;;;;;;23.03;15.30;;;;;;;;;;732906;190;710063;-72
2022/11/16 10:07:10;;;;;;;20.33;13.23;;;;;;;;;;733243;190;815083;-71
2022/11/16 10:09:36;;;;;;;26.47;16.13;;;;;;;;;;742589;186;815557;-71
2022/11/16 10:12:03;;;;;;;28.13;17.73;;;;;;;;;;732034;191;935790;-71
2022/11/16 10:14:30;;;;;;;24.93;14.43;;;;;;;;;;731665;188;887601;-71
2022/11/16 10:17:03;;;;;;;24.70;17.07;;;;;;;;;;736509;191;921304;-72
2022/11/16 10:19:45;;;;;;;22.77;16.50;;;;;;;;;;738537;190;817167;-71
2022/11/16 10:22:14;;;;;;;21.50;13.67;;;;;;;;;;740162;190;917680;-71
2022/11/16 10:24:40;;;;;;;18.53;12.77;;;;;;;;;;732646;188;918322;-71
2022/11/16 10:27:13;;;;;;;16.50;12.20;;;;;;;;;;734098;191;902063;-72
2022/11/16 10:29:40;;;;;;;15.90;9.63;;;;;;;;;;733149;188;916605;-71
2022/11/16 10:32:12;;;;;;;16.40;10.63;;;;;;;;;;728930;191;815934;-71
2022/11/16 10:34:42;;;;;;;16.03;10.37;;;;;;;;;;735249;190;919873;-71
2022/11/16 10:37:08;;;;;;;16.03;11.53;;;;;;;;;;732443;190;919350;-72
2022/11/16 10:39:39;;;;;;;14.40;9.70;;;;;;;;;;735890;190;914426;-72
2022/11/16 10:42:00;;;;;;;15.03;10.23;;;;;;;;;;732627;190;816884;-71
2022/11/16 10:44:30;;;;;;;13.17;9.40;;;;;;;;;;707602;198;918284;-70
2022/11/16 10:46:58;;;;;;;12.30;8.70;;;;;;;;;;720619;194;918761;-71
2022/11/16 10:49:27;;;;;;;13.23;9.30;;;;;;;;;;732661;190;918876;-72
2022/11/16 10:51:53;;;;;;;11.13;8.47;;;;;;;;;;735967;190;918953;-72
2022/11/16 10:54:20;;;;;;;17.60;10.90;;;;;;;;;;734759;190;918694;-72
2022/11/16 10:56:48;;;;;;;12.07;8.77;;;;;;;;;;725606;192;916622;-72
2022/11/16 10:59:14;;;;;;;12.63;9.17;;;;;;;;;;738577;189;815554;-72
2022/11/16 11:01:39;;;;;;;13.33;9.10;;;;;;;;;;733385;189;924707;-71
2022/11/16 11:04:11;;;;;;;15.63;10.50;;;;;;;;;;735295;191;918054;-72
2022/11/16 11:06:37;;;;;;;14.40;9.68;;;;;;;;;;732148;191;918752;-72
2022/11/16 11:09:18;;;;;;;13.53;9.30;;;;;;;;;;730831;191;816310;-71
2022/11/16 11:14:15;;;;;;;14.87;9.00;;;;;;;;;;734165;188;817747;-71
2022/11/16 11:16:41;;;;;;;18.13;12.40;;;;;;;;;;731209;191;918377;-71
2022/11/16 11:19:13;;;;;;;18.10;13.67;;;;;;;;;;733249;188;919038;-72
2022/11/16 11:21:39;;;;;;;20.40;12.13;;;;;;;;;;738242;186;813732;-71
2022/11/16 11:24:05;;;;;;;18.33;11.80;;;;;;;;;;732240;189;918378;-71
2022/11/16 11:26:34;;;;;;;18.07;11.50;;;;;;;;;;724828;190;915092;-72
2022/11/16 11:29:00;;;;;;;17.77;11.83;;;;;;;;;;732058;190;918986;-71
2022/11/16 11:31:26;;;;;;;18.50;11.63;;;;;;;;;;728468;191;919481;-72
2022/11/16 11:33:52;;;;;;;17.53;12.23;;;;;;;;;;736144;190;1016447;-71
2022/11/16 11:36:18;;;;;;;20.45;12.35;;;;;;;;;;736269;188;916030;-71
2022/11/16 11:38:50;;;;;;;17.20;10.73;;;;;;;;;;737624;188;914948;-71
2022/11/16 11:41:17;;;;;;;15.60;10.97;;;;;;;;;;729699;190;912429;-71
2022/11/16 11:43:44;;;;;;;17.02;11.43;;;;;;;;;;733802;188;916896;-71
2022/11/16 11:46:11;;;;;;;12.70;8.70;;;;;;;;;;738143;190;816552;-71
2022/11/16 11:48:41;;;;;;;13.30;8.60;;;;;;;;;;736113;190;806593;-71
2022/11/16 11:51:12;;;;;;;14.70;10.77;;;;;;;;;;734535;189;713394;-71
2022/11/16 11:53:39;;;;;;;16.30;11.47;;;;;;;;;;731537;187;917264;-71
2022/11/16 11:56:06;;;;;;;22.83;11.90;;;;;;;;;;737600;189;919618;-72
2022/11/16 11:58:31;;;;;;;18.30;11.93;;;;;;;;;;740473;190;923706;-71
2022/11/16 12:00:59;;;;;;;19.30;11.20;;;;;;;;;;734033;189;919642;-71
2022/11/16 12:03:25;;;;;;;17.63;11.60;;;;;;;;;;731040;189;1021064;-71
2022/11/16 12:05:53;;;;;;;17.50;11.63;;;;;;;;;;736195;190;816573;-71
2022/11/16 12:08:19;;;;;;;20.97;13.83;;;;;;;;;;706988;197;919419;-72
2022/11/16 12:10:45;;;;;;;24.50;15.07;;;;;;;;;;729874;188;919502;-71
2022/11/16 12:13:16;;;;;;;22.83;14.17;;;;;;;;;;734917;190;919436;-71
2022/11/16 12:15:59;;;;;;;21.90;12.13;;;;;;;;;;733301;190;919591;-71
2022/11/16 12:18:25;;;;;;;24.50;14.90;;;;;;;;;;746344;186;918864;-72
2022/11/16 12:21:02;;;;;;;27.77;16.80;;;;;;;;;;736193;190;918589;-72
2022/11/16 12:23:44;;;;;;;21.83;16.10;;;;;;;;;;727135;190;1116274;-72
2022/11/16 12:26:13;;;;;;;23.33;15.93;;;;;;;;;;744738;189;630125;-71
2022/11/16 12:28:56;;;;;;;23.50;15.57;;;;;;;;;;740105;187;624654;-72
2022/11/16 12:31:42;;;;;;;27.13;17.50;;;;;;;;;;744725;188;817506;-72
2022/11/16 12:34:15;;;;;;;24.77;15.53;;;;;;;;;;736480;189;919390;-71
2022/11/16 12:36:58;;;;;;;24.13;16.30;;;;;;;;;;738871;191;639193;-70
2022/11/16 12:39:30;;;;;;;29.67;17.87;;;;;;;;;;735442;186;920009;-71
2022/11/16 12:41:56;;;;;;;30.10;16.00;;;;;;;;;;738058;191;742373;-71
2022/11/16 12:44:33;;;;;;;26.37;15.60;;;;;;;;;;732675;190;809474;-71
2022/11/16 12:46:59;;;;;;;26.50;16.53;;;;;;;;;;735446;190;630314;-71
2022/11/16 12:49:36;;;;;;;26.33;16.70;;;;;;;;;;735096;190;814923;-71
2022/11/16 12:52:04;;;;;;;31.20;16.60;;;;;;;;;;735957;190;878844;-71
2022/11/16 12:54:47;;;;;;;23.60;15.27;;;;;;;;;;736566;188;1034156;-71
2022/11/16 12:57:16;;;;;;;31.13;18.20;;;;;;;;;;737719;191;815994;-72
2022/11/16 12:59:43;;;;;;;28.03;17.73;;;;;;;;;;731763;189;1026618;-71
2022/11/16 13:02:11;;;;;;;36.53;21.63;;;;;;;;;;728893;191;828947;-72
2022/11/16 13:04:39;;;;;;;35.67;21.95;;;;;;;;;;732890;189;915260;-72
2022/11/16 13:07:03;;;;;;;35.10;20.47;;;;;;;;;;735059;189;903215;-71
2022/11/16 13:09:29;;;;;;;40.17;21.37;;;;;;;;;;734378;188;814635;-72
2022/11/16 13:11:56;;;;;;;29.17;19.47;;;;;;;;;;733191;190;919174;-71
2022/11/16 13:14:21;;;;;;;34.30;20.00;;;;;;;;;;739239;189;812691;-71
2022/11/16 13:16:47;;;;;;;26.60;18.13;;;;;;;;;;734385;189;824364;-74
2022/11/16 13:19:12;;;;;;;30.27;19.07;;;;;;;;;;732713;190;917379;-74
2022/11/16 13:21:55;;;;;;;30.83;17.73;;;;;;;;;;741065;190;699275;-74
2022/11/16 13:24:24;;;;;;;31.70;19.67;;;;;;;;;;738890;188;713447;-74
2022/11/16 13:26:52;;;;;;;37.33;19.83;;;;;;;;;;737616;190;907612;-73
2022/11/16 13:29:21;;;;;;;33.67;19.00;;;;;;;;;;733702;188;918187;-73
2022/11/16 13:31:51;;;;;;;31.60;19.53;;;;;;;;;;737432;187;639284;-74
2022/11/16 13:34:17;;;;;;;28.20;16.93;;;;;;;;;;744072;189;918425;-74
2022/11/16 13:36:44;;;;;;;33.40;20.80;;;;;;;;;;738401;189;811781;-73
2022/11/16 13:39:11;;;;;;;29.07;18.57;;;;;;;;;;707329;196;905424;-74
2022/11/16 13:41:38;;;;;;;34.10;19.93;;;;;;;;;;723477;193;646504;-75
2022/11/16 13:44:05;;;;;;;34.57;21.50;;;;;;;;;;740861;190;623151;-74
2022/11/16 13:46:40;;;;;;;40.03;22.33;;;;;;;;;;736434;190;919160;-74
2022/11/16 13:49:07;;;;;;;40.90;22.73;;;;;;;;;;731930;188;816420;-74
2022/11/16 13:51:32;;;;;;;38.10;22.30;;;;;;;;;;728830;190;939577;-75
2022/11/16 13:53:58;;;;;;;35.67;22.00;;;;;;;;;;735519;190;918708;-74
2022/11/16 13:56:24;;;;;;;36.83;22.70;;;;;;;;;;729359;190;914479;-75
2022/11/16 13:58:50;;;;;;;34.60;21.57;;;;;;;;;;734501;188;816815;-75
2022/11/16 14:01:16;;;;;;;42.97;20.43;;;;;;;;;;741013;191;918636;-75
2022/11/16 14:03:50;;;;;;;36.50;21.53;;;;;;;;;;734346;190;918666;-75
2022/11/16 14:06:32;;;;;;;40.30;21.30;;;;;;;;;;733984;189;918870;-75
2022/11/16 14:08:58;;;;;;;36.90;23.43;;;;;;;;;;731498;190;919147;-75
2022/11/16 14:11:26;;;;;;;33.33;21.00;;;;;;;;;;732594;189;918706;-74
2022/11/16 14:13:51;;;;;;;35.30;21.10;;;;;;;;;;737075;189;816257;-74
2022/11/16 14:16:32;;;;;;;33.20;20.50;;;;;;;;;;727565;190;919435;-75
2022/11/16 14:18:58;;;;;;;33.67;21.52;;;;;;;;;;726888;190;1066321;-76
2022/11/16 14:21:39;;;;;;;40.33;21.40;;;;;;;;;;732564;190;816612;-74
2022/11/16 14:24:06;;;;;;;37.43;20.57;;;;;;;;;;734554;188;1020960;-74
2022/11/16 14:26:38;;;;;;;34.50;19.77;;;;;;;;;;738912;189;919184;-74
2022/11/16 14:29:10;;;;;;;34.47;22.00;;;;;;;;;;733222;190;812304;-74
2022/11/16 14:31:41;;;;;;;37.20;19.37;;;;;;;;;;731146;190;919475;-74
2022/11/16 14:34:07;;;;;;;33.63;20.97;;;;;;;;;;727966;190;918606;-75
2022/11/16 14:36:34;;;;;;;35.53;21.10;;;;;;;;;;731454;191;918571;-74
2022/11/16 14:38:59;;;;;;;38.90;19.87;;;;;;;;;;746387;185;821143;-75
2022/11/16 14:41:25;;;;;;;36.77;18.63;;;;;;;;;;736034;189;816806;-75
2022/11/16 14:43:51;;;;;;;35.27;19.60;;;;;;;;;;733921;188;916574;-75
2022/11/16 14:46:20;;;;;;;27.27;16.60;;;;;;;;;;740039;190;821506;-75
2022/11/16 14:48:47;;;;;;;26.43;17.07;;;;;;;;;;738829;189;724736;-74
2022/11/16 14:51:13;;;;;;;29.30;16.60;;;;;;;;;;736810;190;815722;-75